< < Back
Terminal Aerodrome Forecast


Current Version              Previous Versions:   1  2  3  4  5  6  7  8  9  

Terminal Aerodrome Forecast

460
FTUS44 KOHX 020530
TAFBNA
TAF
KBNA 020530Z 0206/0306 00000KT P6SM BKN250
     FM021600 07003KT P6SM SCT050 BKN250=



Latest METAR

257
SAUS70 KWBC 030200 RRD
MTRBNA
METAR KBNA 030153Z 00000KT 10SM FEW055 SCT100 BKN230 29/19 A3002 RMK AO2
SLP159 T02890189


USA.gov is the U.S. government's official web portal to all federal, state and local government web resources and services.